sensor_id;sensor_type;location;lat;lon;timestamp;P1;durP1;ratioP1;P2;durP2;ratioP2
48679;SDS011;34475;51.658;5.634;2022-08-04T00:00:09;0.4;;;0.3;;
48679;SDS011;34475;51.658;5.634;2022-08-04T00:01:11;0.4;;;0.3;;
48679;SDS011;34475;51.658;5.634;2022-08-04T00:04:06;0.4;;;0.3;;
48679;SDS011;34475;51.658;5.634;2022-08-04T00:05:05;0.4;;;0.3;;
48679;SDS011;34475;51.658;5.634;2022-08-04T00:06:03;0.4;;;0.3;;
48679;SDS011;34475;51.658;5.634;2022-08-04T00:07:07;0.4;;;0.3;;
48679;SDS011;34475;51.658;5.634;2022-08-04T00:09:08;0.4;;;0.3;;
48679;SDS011;34475;51.658;5.634;2022-08-04T00:10:03;0.4;;;0.3;;
48679;SDS011;34475;51.658;5.634;2022-08-04T00:11:01;0.4;;;0.3;;
48679;SDS011;34475;51.658;5.634;2022-08-04T00:12:01;0.4;;;0.3;;
48679;SDS011;34475;51.658;5.634;2022-08-04T00:13:02;1.9;;;1.1;;
48679;SDS011;34475;51.658;5.634;2022-08-04T00:14:05;1.9;;;1.1;;
48679;SDS011;34475;51.658;5.634;2022-08-04T00:15:02;1.9;;;1.1;;
48679;SDS011;34475;51.658;5.634;2022-08-04T00:16:05;1.9;;;1.1;;
48679;SDS011;34475;51.658;5.634;2022-08-04T00:17:03;1.9;;;1.1;;
48679;SDS011;34475;51.658;5.634;2022-08-04T00:18:04;1.9;;;1.1;;
48679;SDS011;34475;51.658;5.634;2022-08-04T00:19:04;1.9;;;1.1;;
48679;SDS011;34475;51.658;5.634;2022-08-04T00:20:02;1.9;;;1.1;;
48679;SDS011;34475;51.658;5.634;2022-08-04T00:21:05;1.9;;;1.1;;
48679;SDS011;34475;51.658;5.634;2022-08-04T00:22:03;1.9;;;1.1;;
48679;SDS011;34475;51.658;5.634;2022-08-04T00:23:01;1.9;;;1.1;;
48679;SDS011;34475;51.658;5.634;2022-08-04T00:24:10;1.9;;;1.1;;
48679;SDS011;34475;51.658;5.634;2022-08-04T00:25:03;1.9;;;1.1;;
48679;SDS011;34475;51.658;5.634;2022-08-04T00:26:00;1.9;;;1.1;;
48679;SDS011;34475;51.658;5.634;2022-08-04T00:27:00;1.9;;;1.1;;
48679;SDS011;34475;51.658;5.634;2022-08-04T00:28:00;1.9;;;1.1;;
48679;SDS011;34475;51.658;5.634;2022-08-04T00:29:00;1.9;;;1.1;;
48679;SDS011;34475;51.658;5.634;2022-08-04T00:30:00;1.9;;;1.1;;
48679;SDS011;34475;51.658;5.634;2022-08-04T00:31:01;1.9;;;1.1;;
48679;SDS011;34475;51.658;5.634;2022-08-04T00:32:00;1.9;;;1.1;;
48679;SDS011;34475;51.658;5.634;2022-08-04T00:33:01;0.1;;;0.1;;
48679;SDS011;34475;51.658;5.634;2022-08-04T00:34:00;0.1;;;0.1;;
48679;SDS011;34475;51.658;5.634;2022-08-04T00:35:01;0.1;;;0.1;;
48679;SDS011;34475;51.658;5.634;2022-08-04T00:36:00;0.1;;;0.1;;
48679;SDS011;34475;51.658;5.634;2022-08-04T00:37:00;0.1;;;0.1;;
48679;SDS011;34475;51.658;5.634;2022-08-04T00:38:00;0.1;;;0.1;;
48679;SDS011;34475;51.658;5.634;2022-08-04T00:39:02;0.1;;;0.1;;
48679;SDS011;34475;51.658;5.634;2022-08-04T00:40:02;0.1;;;0.1;;
48679;SDS011;34475;51.658;5.634;2022-08-04T00:41:04;0.1;;;0.1;;
48679;SDS011;34475;51.658;5.634;2022-08-04T00:43:09;0.1;;;0.1;;
48679;SDS011;34475;51.658;5.634;2022-08-04T00:44:10;0.1;;;0.1;;
48679;SDS011;34475;51.658;5.634;2022-08-04T00:46:36;0.1;;;0.1;;
48679;SDS011;34475;51.658;5.634;2022-08-04T00:47:07;0.1;;;0.1;;
48679;SDS011;34475;51.658;5.634;2022-08-04T00:49:10;0.1;;;0.1;;
48679;SDS011;34475;51.658;5.634;2022-08-04T00:50:09;0.1;;;0.1;;
48679;SDS011;34475;51.658;5.634;2022-08-04T00:53:12;0.5;;;0.4;;
48679;SDS011;34475;51.658;5.634;2022-08-04T00:54:11;0.5;;;0.4;;
48679;SDS011;34475;51.658;5.634;2022-08-04T00:57:05;0.5;;;0.4;;
48679;SDS011;34475;51.658;5.634;2022-08-04T01:00:08;0.5;;;0.4;;
48679;SDS011;34475;51.658;5.634;2022-08-04T01:01:02;0.5;;;0.4;;
48679;SDS011;34475;51.658;5.634;2022-08-04T01:04:14;0.5;;;0.4;;
48679;SDS011;34475;51.658;5.634;2022-08-04T01:05:03;0.5;;;0.4;;
48679;SDS011;34475;51.658;5.634;2022-08-04T01:07:22;0.5;;;0.4;;
48679;SDS011;34475;51.658;5.634;2022-08-04T01:08:29;0.5;;;0.4;;
48679;SDS011;34475;51.658;5.634;2022-08-04T01:09:24;0.5;;;0.4;;
48679;SDS011;34475;51.658;5.634;2022-08-04T01:10:06;0.5;;;0.4;;
48679;SDS011;34475;51.658;5.634;2022-08-04T01:13:21;0.3;;;0.3;;
48679;SDS011;34475;51.658;5.634;2022-08-04T01:14:20;0.3;;;0.3;;
48679;SDS011;34475;51.658;5.634;2022-08-04T01:15:05;0.3;;;0.3;;
48679;SDS011;34475;51.658;5.634;2022-08-04T01:16:04;0.3;;;0.3;;
48679;SDS011;34475;51.658;5.634;2022-08-04T01:19:01;0.3;;;0.3;;
48679;SDS011;34475;51.658;5.634;2022-08-04T01:20:06;0.3;;;0.3;;
48679;SDS011;34475;51.658;5.634;2022-08-04T01:22:11;0.3;;;0.3;;
48679;SDS011;34475;51.658;5.634;2022-08-04T01:23:22;0.3;;;0.3;;
48679;SDS011;34475;51.658;5.634;2022-08-04T01:27:05;0.3;;;0.3;;
48679;SDS011;34475;51.658;5.634;2022-08-04T01:29:03;0.3;;;0.3;;
48679;SDS011;34475;51.658;5.634;2022-08-04T01:30:01;0.3;;;0.3;;
48679;SDS011;34475;51.658;5.634;2022-08-04T01:31:06;0.3;;;0.3;;
48679;SDS011;34475;51.658;5.634;2022-08-04T01:33:03;0.5;;;0.2;;
48679;SDS011;34475;51.658;5.634;2022-08-04T01:34:05;0.5;;;0.2;;
48679;SDS011;34475;51.658;5.634;2022-08-04T01:35:04;0.5;;;0.2;;
48679;SDS011;34475;51.658;5.634;2022-08-04T01:36:04;0.5;;;0.2;;
48679;SDS011;34475;51.658;5.634;2022-08-04T01:37:10;0.5;;;0.2;;
48679;SDS011;34475;51.658;5.634;2022-08-04T01:38:28;0.5;;;0.2;;
48679;SDS011;34475;51.658;5.634;2022-08-04T01:39:11;0.5;;;0.2;;
48679;SDS011;34475;51.658;5.634;2022-08-04T01:40:04;0.5;;;0.2;;
48679;SDS011;34475;51.658;5.634;2022-08-04T01:41:05;0.5;;;0.2;;
48679;SDS011;34475;51.658;5.634;2022-08-04T01:42:01;0.5;;;0.2;;
48679;SDS011;34475;51.658;5.634;2022-08-04T01:43:01;0.5;;;0.2;;
48679;SDS011;34475;51.658;5.634;2022-08-04T01:44:01;0.5;;;0.2;;
48679;SDS011;34475;51.658;5.634;2022-08-04T01:45:04;0.5;;;0.2;;
48679;SDS011;34475;51.658;5.634;2022-08-04T01:46:02;0.5;;;0.2;;
48679;SDS011;34475;51.658;5.634;2022-08-04T01:47:00;0.5;;;0.2;;
48679;SDS011;34475;51.658;5.634;2022-08-04T01:48:02;0.5;;;0.2;;
48679;SDS011;34475;51.658;5.634;2022-08-04T01:49:01;0.5;;;0.2;;
48679;SDS011;34475;51.658;5.634;2022-08-04T01:50:05;0.5;;;0.2;;
48679;SDS011;34475;51.658;5.634;2022-08-04T01:51:04;0.5;;;0.2;;
48679;SDS011;34475;51.658;5.634;2022-08-04T01:52:02;0.5;;;0.2;;
48679;SDS011;34475;51.658;5.634;2022-08-04T01:53:01;0.2;;;0.2;;
48679;SDS011;34475;51.658;5.634;2022-08-04T01:54:00;0.2;;;0.2;;
48679;SDS011;34475;51.658;5.634;2022-08-04T01:55:01;0.2;;;0.2;;
48679;SDS011;34475;51.658;5.634;2022-08-04T01:56:01;0.2;;;0.2;;
48679;SDS011;34475;51.658;5.634;2022-08-04T01:57:14;0.2;;;0.2;;
48679;SDS011;34475;51.658;5.634;2022-08-04T01:58:00;0.2;;;0.2;;
48679;SDS011;34475;51.658;5.634;2022-08-04T01:59:02;0.2;;;0.2;;
48679;SDS011;34475;51.658;5.634;2022-08-04T02:00:00;0.2;;;0.2;;
48679;SDS011;34475;51.658;5.634;2022-08-04T02:01:09;0.2;;;0.2;;
48679;SDS011;34475;51.658;5.634;2022-08-04T02:02:00;0.2;;;0.2;;
48679;SDS011;34475;51.658;5.634;2022-08-04T02:03:00;0.2;;;0.2;;
48679;SDS011;34475;51.658;5.634;2022-08-04T02:04:12;0.2;;;0.2;;
48679;SDS011;34475;51.658;5.634;2022-08-04T02:05:00;0.2;;;0.2;;
48679;SDS011;34475;51.658;5.634;2022-08-04T02:06:13;0.2;;;0.2;;
48679;SDS011;34475;51.658;5.634;2022-08-04T02:07:13;0.2;;;0.2;;
48679;SDS011;34475;51.658;5.634;2022-08-04T02:08:13;0.2;;;0.2;;
48679;SDS011;34475;51.658;5.634;2022-08-04T02:10:07;0.2;;;0.2;;
48679;SDS011;34475;51.658;5.634;2022-08-04T02:11:06;0.2;;;0.2;;
48679;SDS011;34475;51.658;5.634;2022-08-04T02:12:02;0.2;;;0.2;;
48679;SDS011;34475;51.658;5.634;2022-08-04T02:14:13;0.1;;;0.1;;
48679;SDS011;34475;51.658;5.634;2022-08-04T02:17:00;0.1;;;0.1;;
48679;SDS011;34475;51.658;5.634;2022-08-04T02:19:24;0.1;;;0.1;;
48679;SDS011;34475;51.658;5.634;2022-08-04T02:20:06;0.1;;;0.1;;
48679;SDS011;34475;51.658;5.634;2022-08-04T02:21:01;0.1;;;0.1;;
48679;SDS011;34475;51.658;5.634;2022-08-04T02:22:06;0.1;;;0.1;;
48679;SDS011;34475;51.658;5.634;2022-08-04T02:23:05;0.1;;;0.1;;
48679;SDS011;34475;51.658;5.634;2022-08-04T02:24:05;0.1;;;0.1;;
48679;SDS011;34475;51.658;5.634;2022-08-04T02:25:06;0.1;;;0.1;;
48679;SDS011;34475;51.658;5.634;2022-08-04T02:26:02;0.1;;;0.1;;
48679;SDS011;34475;51.658;5.634;2022-08-04T02:27:02;0.1;;;0.1;;
48679;SDS011;34475;51.658;5.634;2022-08-04T02:28:14;0.1;;;0.1;;
48679;SDS011;34475;51.658;5.634;2022-08-04T02:29:09;0.1;;;0.1;;
48679;SDS011;34475;51.658;5.634;2022-08-04T02:30:03;0.1;;;0.1;;
48679;SDS011;34475;51.658;5.634;2022-08-04T02:32:05;0.1;;;0.1;;
48679;SDS011;34475;51.658;5.634;2022-08-04T02:33:03;0.3;;;0.3;;
48679;SDS011;34475;51.658;5.634;2022-08-04T02:34:10;0.3;;;0.3;;
48679;SDS011;34475;51.658;5.634;2022-08-04T02:35:05;0.3;;;0.3;;
48679;SDS011;34475;51.658;5.634;2022-08-04T02:36:03;0.3;;;0.3;;
48679;SDS011;34475;51.658;5.634;2022-08-04T02:37:03;0.3;;;0.3;;
48679;SDS011;34475;51.658;5.634;2022-08-04T02:38:10;0.3;;;0.3;;
48679;SDS011;34475;51.658;5.634;2022-08-04T02:39:02;0.3;;;0.3;;
48679;SDS011;34475;51.658;5.634;2022-08-04T02:40:02;0.3;;;0.3;;
48679;SDS011;34475;51.658;5.634;2022-08-04T02:41:00;0.3;;;0.3;;
48679;SDS011;34475;51.658;5.634;2022-08-04T02:42:03;0.3;;;0.3;;
48679;SDS011;34475;51.658;5.634;2022-08-04T02:43:02;0.3;;;0.3;;
48679;SDS011;34475;51.658;5.634;2022-08-04T02:44:03;0.3;;;0.3;;
48679;SDS011;34475;51.658;5.634;2022-08-04T02:45:00;0.3;;;0.3;;
48679;SDS011;34475;51.658;5.634;2022-08-04T02:46:02;0.3;;;0.3;;
48679;SDS011;34475;51.658;5.634;2022-08-04T02:47:00;0.3;;;0.3;;
48679;SDS011;34475;51.658;5.634;2022-08-04T02:48:10;0.3;;;0.3;;
48679;SDS011;34475;51.658;5.634;2022-08-04T02:49:04;0.3;;;0.3;;
48679;SDS011;34475;51.658;5.634;2022-08-04T02:50:01;0.3;;;0.3;;
48679;SDS011;34475;51.658;5.634;2022-08-04T02:51:02;0.3;;;0.3;;
48679;SDS011;34475;51.658;5.634;2022-08-04T02:52:01;0.3;;;0.3;;
48679;SDS011;34475;51.658;5.634;2022-08-04T02:53:02;0.5;;;0.5;;
48679;SDS011;34475;51.658;5.634;2022-08-04T02:54:02;0.5;;;0.5;;
48679;SDS011;34475;51.658;5.634;2022-08-04T02:55:01;0.5;;;0.5;;
48679;SDS011;34475;51.658;5.634;2022-08-04T02:56:01;0.5;;;0.5;;
48679;SDS011;34475;51.658;5.634;2022-08-04T02:57:01;0.5;;;0.5;;
48679;SDS011;34475;51.658;5.634;2022-08-04T02:58:02;0.5;;;0.5;;
48679;SDS011;34475;51.658;5.634;2022-08-04T02:59:04;0.5;;;0.5;;
48679;SDS011;34475;51.658;5.634;2022-08-04T03:00:13;0.5;;;0.5;;
48679;SDS011;34475;51.658;5.634;2022-08-04T03:01:00;0.5;;;0.5;;
48679;SDS011;34475;51.658;5.634;2022-08-04T03:02:00;0.5;;;0.5;;
48679;SDS011;34475;51.658;5.634;2022-08-04T03:03:15;0.5;;;0.5;;
48679;SDS011;34475;51.658;5.634;2022-08-04T03:05:08;0.5;;;0.5;;
48679;SDS011;34475;51.658;5.634;2022-08-04T03:07:23;0.5;;;0.5;;
48679;SDS011;34475;51.658;5.634;2022-08-04T03:08:20;0.5;;;0.5;;
48679;SDS011;34475;51.658;5.634;2022-08-04T03:09:08;0.5;;;0.5;;
48679;SDS011;34475;51.658;5.634;2022-08-04T03:15:10;0.9;;;0.6;;
48679;SDS011;34475;51.658;5.634;2022-08-04T03:16:11;0.9;;;0.6;;
48679;SDS011;34475;51.658;5.634;2022-08-04T03:18:16;0.9;;;0.6;;
48679;SDS011;34475;51.658;5.634;2022-08-04T03:20:16;0.9;;;0.6;;
48679;SDS011;34475;51.658;5.634;2022-08-04T03:25:13;0.9;;;0.6;;
48679;SDS011;34475;51.658;5.634;2022-08-04T03:27:17;0.9;;;0.6;;
48679;SDS011;34475;51.658;5.634;2022-08-04T03:31:09;0.9;;;0.6;;
48679;SDS011;34475;51.658;5.634;2022-08-04T03:38:16;0.1;;;0.1;;
48679;SDS011;34475;51.658;5.634;2022-08-04T03:40:09;0.1;;;0.1;;
48679;SDS011;34475;51.658;5.634;2022-08-04T03:42:11;0.1;;;0.1;;
48679;SDS011;34475;51.658;5.634;2022-08-04T03:44:21;0.1;;;0.1;;
48679;SDS011;34475;51.658;5.634;2022-08-04T03:46:08;0.1;;;0.1;;
48679;SDS011;34475;51.658;5.634;2022-08-04T03:47:16;0.1;;;0.1;;
48679;SDS011;34475;51.658;5.634;2022-08-04T03:48:08;0.1;;;0.1;;
48679;SDS011;34475;51.658;5.634;2022-08-04T03:50:10;0.1;;;0.1;;
48679;SDS011;34475;51.658;5.634;2022-08-04T03:51:22;0.1;;;0.1;;
48679;SDS011;34475;51.658;5.634;2022-08-04T03:54:26;0.1;;;0.1;;
48679;SDS011;34475;51.658;5.634;2022-08-04T03:56:23;0.1;;;0.1;;
48679;SDS011;34475;51.658;5.634;2022-08-04T04:00:11;0.1;;;0.1;;
48679;SDS011;34475;51.658;5.634;2022-08-04T04:01:06;0.1;;;0.1;;
48679;SDS011;34475;51.658;5.634;2022-08-04T04:07:19;0.1;;;0.1;;
48679;SDS011;34475;51.658;5.634;2022-08-04T04:09:27;0.1;;;0.1;;
48679;SDS011;34475;51.658;5.634;2022-08-04T04:11:16;0.1;;;0.1;;
48679;SDS011;34475;51.658;5.634;2022-08-04T04:12:05;0.1;;;0.1;;
48679;SDS011;34475;51.658;5.634;2022-08-04T04:15:10;0.2;;;0.2;;
48679;SDS011;34475;51.658;5.634;2022-08-04T04:16:15;0.2;;;0.2;;
48679;SDS011;34475;51.658;5.634;2022-08-04T04:17:08;0.2;;;0.2;;
48679;SDS011;34475;51.658;5.634;2022-08-04T04:18:15;0.2;;;0.2;;
48679;SDS011;34475;51.658;5.634;2022-08-04T04:23:14;0.2;;;0.2;;
48679;SDS011;34475;51.658;5.634;2022-08-04T04:24:05;0.2;;;0.2;;
48679;SDS011;34475;51.658;5.634;2022-08-04T04:25:16;0.2;;;0.2;;
48679;SDS011;34475;51.658;5.634;2022-08-04T04:26:27;0.2;;;0.2;;
48679;SDS011;34475;51.658;5.634;2022-08-04T04:27:08;0.2;;;0.2;;
48679;SDS011;34475;51.658;5.634;2022-08-04T04:30:05;0.2;;;0.2;;
48679;SDS011;34475;51.658;5.634;2022-08-04T04:31:15;0.2;;;0.2;;
48679;SDS011;34475;51.658;5.634;2022-08-04T04:35:17;0.7;;;0.5;;
48679;SDS011;34475;51.658;5.634;2022-08-04T04:37:14;0.7;;;0.5;;
48679;SDS011;34475;51.658;5.634;2022-08-04T04:39:02;0.7;;;0.5;;
48679;SDS011;34475;51.658;5.634;2022-08-04T04:40:21;0.7;;;0.5;;
48679;SDS011;34475;51.658;5.634;2022-08-04T04:41:04;0.7;;;0.5;;
48679;SDS011;34475;51.658;5.634;2022-08-04T04:43:12;0.7;;;0.5;;
48679;SDS011;34475;51.658;5.634;2022-08-04T04:46:28;0.7;;;0.5;;
48679;SDS011;34475;51.658;5.634;2022-08-04T04:47:10;0.7;;;0.5;;
48679;SDS011;34475;51.658;5.634;2022-08-04T04:48:13;0.7;;;0.5;;
48679;SDS011;34475;51.658;5.634;2022-08-04T04:50:16;0.7;;;0.5;;
48679;SDS011;34475;51.658;5.634;2022-08-04T04:51:13;0.7;;;0.5;;
48679;SDS011;34475;51.658;5.634;2022-08-04T04:52:12;0.7;;;0.5;;
48679;SDS011;34475;51.658;5.634;2022-08-04T04:54:07;0.8;;;0.8;;
48679;SDS011;34475;51.658;5.634;2022-08-04T04:56:16;0.8;;;0.8;;
48679;SDS011;34475;51.658;5.634;2022-08-04T04:57:12;0.8;;;0.8;;
48679;SDS011;34475;51.658;5.634;2022-08-04T04:58:00;0.8;;;0.8;;
48679;SDS011;34475;51.658;5.634;2022-08-04T04:59:01;0.8;;;0.8;;
48679;SDS011;34475;51.658;5.634;2022-08-04T05:00:04;0.8;;;0.8;;
48679;SDS011;34475;51.658;5.634;2022-08-04T05:03:11;0.8;;;0.8;;
48679;SDS011;34475;51.658;5.634;2022-08-04T05:06:17;0.8;;;0.8;;
48679;SDS011;34475;51.658;5.634;2022-08-04T05:08:25;0.8;;;0.8;;
48679;SDS011;34475;51.658;5.634;2022-08-04T05:09:10;0.8;;;0.8;;
48679;SDS011;34475;51.658;5.634;2022-08-04T05:10:19;0.8;;;0.8;;
48679;SDS011;34475;51.658;5.634;2022-08-04T05:14:13;0.5;;;0.5;;
48679;SDS011;34475;51.658;5.634;2022-08-04T05:15:02;0.5;;;0.5;;
48679;SDS011;34475;51.658;5.634;2022-08-04T05:33:06;0.7;;;0.6;;
48679;SDS011;34475;51.658;5.634;2022-08-04T05:34:07;0.7;;;0.6;;
48679;SDS011;34475;51.658;5.634;2022-08-04T05:35:04;0.7;;;0.6;;
48679;SDS011;34475;51.658;5.634;2022-08-04T05:36:14;0.7;;;0.6;;
48679;SDS011;34475;51.658;5.634;2022-08-04T05:37:06;0.7;;;0.6;;
48679;SDS011;34475;51.658;5.634;2022-08-04T05:38:02;0.7;;;0.6;;
48679;SDS011;34475;51.658;5.634;2022-08-04T05:39:01;0.7;;;0.6;;
48679;SDS011;34475;51.658;5.634;2022-08-04T05:40:04;0.7;;;0.6;;
48679;SDS011;34475;51.658;5.634;2022-08-04T05:41:01;0.7;;;0.6;;
48679;SDS011;34475;51.658;5.634;2022-08-04T05:42:05;0.7;;;0.6;;
48679;SDS011;34475;51.658;5.634;2022-08-04T05:43:00;0.7;;;0.6;;
48679;SDS011;34475;51.658;5.634;2022-08-04T05:44:01;0.7;;;0.6;;
48679;SDS011;34475;51.658;5.634;2022-08-04T05:45:01;0.7;;;0.6;;
48679;SDS011;34475;51.658;5.634;2022-08-04T05:46:00;0.7;;;0.6;;
48679;SDS011;34475;51.658;5.634;2022-08-04T05:47:02;0.7;;;0.6;;
48679;SDS011;34475;51.658;5.634;2022-08-04T05:48:01;0.7;;;0.6;;
48679;SDS011;34475;51.658;5.634;2022-08-04T05:49:02;0.7;;;0.6;;
48679;SDS011;34475;51.658;5.634;2022-08-04T05:50:03;0.7;;;0.6;;
48679;SDS011;34475;51.658;5.634;2022-08-04T05:51:02;0.7;;;0.6;;
48679;SDS011;34475;51.658;5.634;2022-08-04T05:52:02;0.7;;;0.6;;
48679;SDS011;34475;51.658;5.634;2022-08-04T05:53:01;0.1;;;0.1;;
48679;SDS011;34475;51.658;5.634;2022-08-04T05:54:01;0.1;;;0.1;;
48679;SDS011;34475;51.658;5.634;2022-08-04T05:55:00;0.1;;;0.1;;
48679;SDS011;34475;51.658;5.634;2022-08-04T05:56:01;0.1;;;0.1;;
48679;SDS011;34475;51.658;5.634;2022-08-04T05:57:03;0.1;;;0.1;;
48679;SDS011;34475;51.658;5.634;2022-08-04T05:58:00;0.1;;;0.1;;
48679;SDS011;34475;51.658;5.634;2022-08-04T05:59:02;0.1;;;0.1;;
48679;SDS011;34475;51.658;5.634;2022-08-04T06:00:11;0.1;;;0.1;;
48679;SDS011;34475;51.658;5.634;2022-08-04T06:01:01;0.1;;;0.1;;
48679;SDS011;34475;51.658;5.634;2022-08-04T06:02:01;0.1;;;0.1;;
48679;SDS011;34475;51.658;5.634;2022-08-04T06:03:01;0.1;;;0.1;;
48679;SDS011;34475;51.658;5.634;2022-08-04T06:04:01;0.1;;;0.1;;
48679;SDS011;34475;51.658;5.634;2022-08-04T06:05:01;0.1;;;0.1;;
48679;SDS011;34475;51.658;5.634;2022-08-04T06:06:00;0.1;;;0.1;;
48679;SDS011;34475;51.658;5.634;2022-08-04T06:07:00;0.1;;;0.1;;
48679;SDS011;34475;51.658;5.634;2022-08-04T06:08:10;0.1;;;0.1;;
48679;SDS011;34475;51.658;5.634;2022-08-04T06:09:00;0.1;;;0.1;;
48679;SDS011;34475;51.658;5.634;2022-08-04T06:10:00;0.1;;;0.1;;
48679;SDS011;34475;51.658;5.634;2022-08-04T06:11:03;0.1;;;0.1;;
48679;SDS011;34475;51.658;5.634;2022-08-04T06:12:05;0.1;;;0.1;;
48679;SDS011;34475;51.658;5.634;2022-08-04T06:13:05;0.2;;;0.2;;
48679;SDS011;34475;51.658;5.634;2022-08-04T06:14:04;0.2;;;0.2;;
48679;SDS011;34475;51.658;5.634;2022-08-04T06:15:00;0.2;;;0.2;;
48679;SDS011;34475;51.658;5.634;2022-08-04T06:16:01;0.2;;;0.2;;
48679;SDS011;34475;51.658;5.634;2022-08-04T06:17:04;0.2;;;0.2;;
48679;SDS011;34475;51.658;5.634;2022-08-04T06:18:11;0.2;;;0.2;;
48679;SDS011;34475;51.658;5.634;2022-08-04T06:19:13;0.2;;;0.2;;
48679;SDS011;34475;51.658;5.634;2022-08-04T06:20:11;0.2;;;0.2;;
48679;SDS011;34475;51.658;5.634;2022-08-04T06:21:03;0.2;;;0.2;;
48679;SDS011;34475;51.658;5.634;2022-08-04T06:22:02;0.2;;;0.2;;
48679;SDS011;34475;51.658;5.634;2022-08-04T06:23:02;0.2;;;0.2;;
48679;SDS011;34475;51.658;5.634;2022-08-04T06:24:06;0.2;;;0.2;;
48679;SDS011;34475;51.658;5.634;2022-08-04T06:25:02;0.2;;;0.2;;
48679;SDS011;34475;51.658;5.634;2022-08-04T06:26:00;0.2;;;0.2;;
48679;SDS011;34475;51.658;5.634;2022-08-04T06:27:02;0.2;;;0.2;;
48679;SDS011;34475;51.658;5.634;2022-08-04T06:28:01;0.2;;;0.2;;
48679;SDS011;34475;51.658;5.634;2022-08-04T06:29:02;0.2;;;0.2;;
48679;SDS011;34475;51.658;5.634;2022-08-04T06:30:01;0.2;;;0.2;;
48679;SDS011;34475;51.658;5.634;2022-08-04T06:31:11;0.2;;;0.2;;
48679;SDS011;34475;51.658;5.634;2022-08-04T06:32:20;0.1;;;0.1;;
48679;SDS011;34475;51.658;5.634;2022-08-04T06:33:15;0.1;;;0.1;;
48679;SDS011;34475;51.658;5.634;2022-08-04T06:34:01;0.1;;;0.1;;
48679;SDS011;34475;51.658;5.634;2022-08-04T06:35:01;0.1;;;0.1;;
48679;SDS011;34475;51.658;5.634;2022-08-04T06:36:02;0.1;;;0.1;;
48679;SDS011;34475;51.658;5.634;2022-08-04T06:37:00;0.1;;;0.1;;
48679;SDS011;34475;51.658;5.634;2022-08-04T06:38:02;0.1;;;0.1;;
48679;SDS011;34475;51.658;5.634;2022-08-04T06:39:01;0.1;;;0.1;;
48679;SDS011;34475;51.658;5.634;2022-08-04T06:40:02;0.1;;;0.1;;
48679;SDS011;34475;51.658;5.634;2022-08-04T06:41:02;0.1;;;0.1;;
48679;SDS011;34475;51.658;5.634;2022-08-04T06:42:10;0.1;;;0.1;;
48679;SDS011;34475;51.658;5.634;2022-08-04T06:43:03;0.1;;;0.1;;
48679;SDS011;34475;51.658;5.634;2022-08-04T06:44:05;0.1;;;0.1;;
48679;SDS011;34475;51.658;5.634;2022-08-04T06:45:00;0.1;;;0.1;;
48679;SDS011;34475;51.658;5.634;2022-08-04T06:46:01;0.1;;;0.1;;
48679;SDS011;34475;51.658;5.634;2022-08-04T06:47:04;0.1;;;0.1;;
48679;SDS011;34475;51.658;5.634;2022-08-04T06:48:01;0.1;;;0.1;;
48679;SDS011;34475;51.658;5.634;2022-08-04T06:49:00;0.1;;;0.1;;
48679;SDS011;34475;51.658;5.634;2022-08-04T06:50:10;0.1;;;0.1;;
48679;SDS011;34475;51.658;5.634;2022-08-04T06:51:11;0.1;;;0.1;;
48679;SDS011;34475;51.658;5.634;2022-08-04T06:52:02;0.1;;;0.1;;
48679;SDS011;34475;51.658;5.634;2022-08-04T06:53:00;0.4;;;0.4;;
48679;SDS011;34475;51.658;5.634;2022-08-04T06:54:00;0.4;;;0.4;;
48679;SDS011;34475;51.658;5.634;2022-08-04T06:55:00;0.4;;;0.4;;
48679;SDS011;34475;51.658;5.634;2022-08-04T06:56:00;0.4;;;0.4;;
48679;SDS011;34475;51.658;5.634;2022-08-04T06:57:01;0.4;;;0.4;;
48679;SDS011;34475;51.658;5.634;2022-08-04T06:58:03;0.4;;;0.4;;
48679;SDS011;34475;51.658;5.634;2022-08-04T06:59:01;0.4;;;0.4;;
48679;SDS011;34475;51.658;5.634;2022-08-04T07:00:04;0.4;;;0.4;;
48679;SDS011;34475;51.658;5.634;2022-08-04T07:01:01;0.4;;;0.4;;
48679;SDS011;34475;51.658;5.634;2022-08-04T07:02:00;0.4;;;0.4;;
48679;SDS011;34475;51.658;5.634;2022-08-04T07:03:01;0.4;;;0.4;;
48679;SDS011;34475;51.658;5.634;2022-08-04T07:04:00;0.4;;;0.4;;
48679;SDS011;34475;51.658;5.634;2022-08-04T07:05:06;0.4;;;0.4;;
48679;SDS011;34475;51.658;5.634;2022-08-04T07:06:10;0.4;;;0.4;;
48679;SDS011;34475;51.658;5.634;2022-08-04T07:07:01;0.4;;;0.4;;
48679;SDS011;34475;51.658;5.634;2022-08-04T07:08:00;0.4;;;0.4;;
48679;SDS011;34475;51.658;5.634;2022-08-04T07:09:01;0.4;;;0.4;;
48679;SDS011;34475;51.658;5.634;2022-08-04T07:10:00;0.4;;;0.4;;
48679;SDS011;34475;51.658;5.634;2022-08-04T07:11:01;0.4;;;0.4;;
48679;SDS011;34475;51.658;5.634;2022-08-04T07:12:00;0.4;;;0.4;;
48679;SDS011;34475;51.658;5.634;2022-08-04T07:13:01;0.8;;;0.8;;
48679;SDS011;34475;51.658;5.634;2022-08-04T07:14:00;0.8;;;0.8;;
48679;SDS011;34475;51.658;5.634;2022-08-04T07:15:00;0.8;;;0.8;;
48679;SDS011;34475;51.658;5.634;2022-08-04T07:16:00;0.8;;;0.8;;
48679;SDS011;34475;51.658;5.634;2022-08-04T07:17:02;0.8;;;0.8;;
48679;SDS011;34475;51.658;5.634;2022-08-04T07:18:03;0.8;;;0.8;;
48679;SDS011;34475;51.658;5.634;2022-08-04T07:19:10;0.8;;;0.8;;
48679;SDS011;34475;51.658;5.634;2022-08-04T07:20:00;0.8;;;0.8;;
48679;SDS011;34475;51.658;5.634;2022-08-04T07:21:00;0.8;;;0.8;;
48679;SDS011;34475;51.658;5.634;2022-08-04T07:22:11;0.8;;;0.8;;
48679;SDS011;34475;51.658;5.634;2022-08-04T07:23:00;0.8;;;0.8;;
48679;SDS011;34475;51.658;5.634;2022-08-04T07:24:00;0.8;;;0.8;;
48679;SDS011;34475;51.658;5.634;2022-08-04T07:25:06;0.8;;;0.8;;
48679;SDS011;34475;51.658;5.634;2022-08-04T07:26:10;0.8;;;0.8;;
48679;SDS011;34475;51.658;5.634;2022-08-04T07:31:01;0.8;;;0.8;;
48679;SDS011;34475;51.658;5.634;2022-08-04T07:33:00;0.1;;;0.1;;
48679;SDS011;34475;51.658;5.634;2022-08-04T07:34:10;0.1;;;0.1;;
48679;SDS011;34475;51.658;5.634;2022-08-04T07:35:00;0.1;;;0.1;;
48679;SDS011;34475;51.658;5.634;2022-08-04T07:36:10;0.1;;;0.1;;
48679;SDS011;34475;51.658;5.634;2022-08-04T07:37:00;0.1;;;0.1;;
48679;SDS011;34475;51.658;5.634;2022-08-04T07:38:01;0.1;;;0.1;;
48679;SDS011;34475;51.658;5.634;2022-08-04T07:39:00;0.1;;;0.1;;
48679;SDS011;34475;51.658;5.634;2022-08-04T07:40:00;0.1;;;0.1;;
48679;SDS011;34475;51.658;5.634;2022-08-04T07:41:02;0.1;;;0.1;;
48679;SDS011;34475;51.658;5.634;2022-08-04T07:42:02;0.1;;;0.1;;
48679;SDS011;34475;51.658;5.634;2022-08-04T07:43:00;0.1;;;0.1;;
48679;SDS011;34475;51.658;5.634;2022-08-04T07:44:00;0.1;;;0.1;;
48679;SDS011;34475;51.658;5.634;2022-08-04T07:45:00;0.1;;;0.1;;
48679;SDS011;34475;51.658;5.634;2022-08-04T07:46:00;0.1;;;0.1;;
48679;SDS011;34475;51.658;5.634;2022-08-04T07:47:02;0.1;;;0.1;;
48679;SDS011;34475;51.658;5.634;2022-08-04T07:48:06;0.1;;;0.1;;
48679;SDS011;34475;51.658;5.634;2022-08-04T07:49:00;0.1;;;0.1;;
48679;SDS011;34475;51.658;5.634;2022-08-04T07:50:00;0.1;;;0.1;;
48679;SDS011;34475;51.658;5.634;2022-08-04T07:51:00;0.1;;;0.1;;
48679;SDS011;34475;51.658;5.634;2022-08-04T07:52:00;0.1;;;0.1;;
48679;SDS011;34475;51.658;5.634;2022-08-04T07:53:11;0.5;;;0.5;;
48679;SDS011;34475;51.658;5.634;2022-08-04T07:54:03;0.5;;;0.5;;
48679;SDS011;34475;51.658;5.634;2022-08-04T07:55:00;0.5;;;0.5;;
48679;SDS011;34475;51.658;5.634;2022-08-04T07:56:01;0.5;;;0.5;;
48679;SDS011;34475;51.658;5.634;2022-08-04T07:57:00;0.5;;;0.5;;
48679;SDS011;34475;51.658;5.634;2022-08-04T07:58:00;0.5;;;0.5;;
48679;SDS011;34475;51.658;5.634;2022-08-04T07:59:00;0.5;;;0.5;;
48679;SDS011;34475;51.658;5.634;2022-08-04T08:00:01;0.5;;;0.5;;
48679;SDS011;34475;51.658;5.634;2022-08-04T08:01:00;0.5;;;0.5;;
48679;SDS011;34475;51.658;5.634;2022-08-04T08:02:01;0.5;;;0.5;;
48679;SDS011;34475;51.658;5.634;2022-08-04T08:03:00;0.5;;;0.5;;
48679;SDS011;34475;51.658;5.634;2022-08-04T08:04:00;0.5;;;0.5;;
48679;SDS011;34475;51.658;5.634;2022-08-04T08:05:00;0.5;;;0.5;;
48679;SDS011;34475;51.658;5.634;2022-08-04T08:06:10;0.5;;;0.5;;
48679;SDS011;34475;51.658;5.634;2022-08-04T08:07:00;0.5;;;0.5;;
48679;SDS011;34475;51.658;5.634;2022-08-04T08:08:00;0.5;;;0.5;;
48679;SDS011;34475;51.658;5.634;2022-08-04T08:09:12;0.5;;;0.5;;
48679;SDS011;34475;51.658;5.634;2022-08-04T08:10:00;0.5;;;0.5;;
48679;SDS011;34475;51.658;5.634;2022-08-04T08:11:00;0.5;;;0.5;;
48679;SDS011;34475;51.658;5.634;2022-08-04T08:12:10;0.3;;;0.3;;
48679;SDS011;34475;51.658;5.634;2022-08-04T08:13:00;0.3;;;0.3;;